Scott City, KS

11:45 AM CDT on August 04, 2015 (GMT -0500)
NonFedAWOS | | Change Station
CLOSE
Current Station
Personal Weather Station
Location: Scott City, KS
Elevation: 2962 ft
Nearby Weather Stations

Elev 2962 ft 38.47 °N, 100.89 °W | Updated 28 minutes ago

Partly Cloudy
Partly Cloudy
77 °F
Feels Like 79 °F
N
12
Wind Variable Wind from South
Gusts 0.0 mph

Today
High -- | Low -- °F
--% Chance of Precip.
Yesterday
High -- | Low -- °F
Precip. -- in
6:47 AM 8:50 PM
Waning Gibbous, 76% visible
Pressure 29.86 in
Visibility 10.0 miles
Clouds Clear
Heat Index 79 °F
Dew Point 63 °F
Humidity 61%
Rainfall in
Snow Depth Not available.
UV 7 out of 12
Pollen 1.70 out of 12
Air Quality Not available.
Flu Activity Not available.
METAR KGCK 041554Z 19007KT 10SM CLR 24/18 A2996 RMK AO2 SLP112 T02440178

More Conditions Fewer Conditions

Pressure 29.86 in
Visibility 10.0 miles
Clouds Clear
Heat Index 79 °F
Dew Point 63 °F
Humidity 61%
Rainfall in
Snow Depth Not available.
UV 7 out of 12
Pollen 1.70 out of 12
Air Quality Not available.
Flu Activity Not available.
METAR KGCK 041554Z 19007KT 10SM CLR 24/18 A2996 RMK AO2 SLP112 T02440178

More Conditions Fewer Conditions

10-Day Weather Forecast

×

Almanac

Astronomy

Aug. 04, 2015 Rise Set
Actual Time
Civil Twilight
Nautical Twilight
Astronomical Twilight
Moon
Length of Visible Light
Length of Day
Tomorrow will be .
, % of the Moon is Illuminated

Today's Extremes

State Highs State Lows

Community

WunderPhotos

Upload Photos

1,843,920 photos uploaded!

WunderBlogs® & News

Nearby

Air Quality

  Air Quality AQ Index Pollutant
Not available.

Snow Depth

Station Depth Elevation

Earthquake Activity

City Distance Mag. Time & Date
Minimum magnitude displayed is 2.5.

Coastal Water Temperatures

Place Temperature

Stations

Nearby Weather Stations

Station Location Temp. Windchill Dew Point Humidity Wind Precip. Elev Updated Type